createdAt,value
2022-12-08T00:01:30.780Z,4.05
2022-12-08T00:04:01.442Z,4.22
2022-12-08T00:06:55.537Z,4.05
2022-12-08T00:09:38.943Z,3.25
2022-12-08T00:12:12.646Z,2.67
2022-12-08T00:14:44.993Z,3.63
2022-12-08T00:17:16.296Z,3.80
2022-12-08T00:19:45.091Z,6.30
2022-12-08T00:24:41.227Z,2.28
2022-12-08T00:27:10.014Z,5.63
2022-12-08T00:29:36.772Z,3.60
2022-12-08T00:32:03.586Z,2.58
2022-12-08T00:34:31.743Z,4.60
2022-12-08T00:36:58.909Z,3.00
2022-12-08T00:39:29.813Z,3.42
2022-12-08T00:42:15.228Z,2.17
2022-12-08T00:44:43.828Z,2.80
2022-12-08T00:47:11.264Z,3.08
2022-12-08T00:49:38.185Z,4.78
2022-12-08T00:52:05.308Z,5.93
2022-12-08T00:54:31.944Z,3.42
2022-12-08T00:56:58.637Z,2.95
2022-12-08T00:59:28.736Z,2.55
2022-12-08T01:01:59.585Z,5.28
2022-12-08T01:04:26.941Z,3.90
2022-12-08T01:06:53.817Z,2.80
2022-12-08T01:09:20.905Z,7.65
2022-12-08T01:11:47.649Z,2.50
2022-12-08T01:14:14.487Z,1.60
2022-12-08T01:16:44.033Z,2.50
2022-12-08T01:19:13.259Z,7.00
2022-12-08T01:21:40.989Z,6.05
2022-12-08T01:24:10.553Z,2.45
2022-12-08T01:26:37.395Z,2.33
2022-12-08T01:29:04.229Z,2.58
2022-12-08T01:31:31.293Z,2.40
2022-12-08T01:33:58.826Z,2.67
2022-12-08T01:36:28.470Z,2.50
2022-12-08T01:38:59.470Z,3.17
2022-12-08T01:41:29.841Z,4.82
2022-12-08T01:44:08.848Z,2.67
2022-12-08T01:46:38.618Z,4.00
2022-12-08T01:49:32.048Z,4.97
2022-12-08T01:52:10.798Z,2.60
2022-12-08T01:54:46.616Z,2.22
2022-12-08T01:57:48.945Z,2.65
2022-12-08T02:00:18.514Z,1.83
2022-12-08T02:03:02.681Z,3.65
2022-12-08T02:05:33.358Z,4.03
2022-12-08T02:08:04.542Z,5.53
2022-12-08T02:10:34.104Z,1.50
2022-12-08T02:13:02.728Z,1.17
2022-12-08T02:15:48.437Z,3.55
2022-12-08T02:18:18.192Z,2.50
2022-12-08T02:20:47.395Z,1.63
2022-12-08T02:23:34.530Z,3.00
2022-12-08T02:26:34.159Z,1.90
2022-12-08T02:29:39.802Z,1.38
2022-12-08T02:32:28.176Z,1.88
2022-12-08T02:35:10.888Z,3.05
2022-12-08T02:37:45.334Z,1.70
2022-12-08T02:41:04.008Z,1.92
2022-12-08T02:43:38.347Z,1.67
2022-12-08T02:46:21.836Z,2.83
2022-12-08T02:48:51.434Z,2.30
2022-12-08T02:51:18.881Z,2.53
2022-12-08T02:53:46.293Z,3.65
2022-12-08T02:56:54.976Z,2.90
2022-12-08T02:59:41.865Z,3.28
2022-12-08T03:02:50.180Z,3.60
2022-12-08T03:05:28.748Z,3.40
2022-12-08T03:08:17.498Z,3.72
2022-12-08T03:10:50.813Z,4.22
2022-12-08T03:13:25.906Z,2.97
2022-12-08T03:15:55.010Z,3.85
2022-12-08T03:18:26.621Z,6.03
2022-12-08T03:20:53.479Z,3.95
2022-12-08T03:23:25.026Z,2.70
2022-12-08T03:26:08.906Z,2.60
2022-12-08T03:28:35.702Z,4.78
2022-12-08T03:31:05.811Z,4.30
2022-12-08T03:33:37.077Z,1.98
2022-12-08T03:36:05.473Z,1.95
2022-12-08T03:41:18.350Z,1.97
2022-12-08T03:43:59.545Z,1.40
2022-12-08T03:48:54.678Z,2.00
2022-12-08T03:51:24.991Z,1.73
2022-12-08T03:53:52.478Z,3.20
2022-12-08T03:56:33.966Z,2.70
2022-12-08T03:59:02.498Z,1.75
2022-12-08T04:01:30.438Z,2.25
2022-12-08T04:03:57.068Z,1.10
2022-12-08T04:06:26.862Z,1.25
2022-12-08T04:08:53.985Z,1.20
2022-12-08T04:11:21.342Z,1.30
2022-12-08T04:13:50.588Z,3.40
2022-12-08T04:16:24.260Z,0.60
2022-12-08T04:18:51.028Z,1.48
2022-12-08T04:21:17.961Z,2.08
2022-12-08T04:23:45.174Z,0.75
2022-12-08T04:26:12.541Z,0.70
2022-12-08T04:28:39.321Z,5.72
2022-12-08T04:31:07.113Z,1.67
2022-12-08T04:33:35.144Z,1.52
2022-12-08T04:36:03.164Z,1.95
2022-12-08T04:38:29.900Z,0.50
2022-12-08T04:40:56.465Z,0.60
2022-12-08T04:43:23.609Z,2.05
2022-12-08T04:45:50.573Z,0.60
2022-12-08T04:48:17.492Z,2.00
2022-12-08T04:50:45.545Z,1.95
2022-12-08T04:53:13.468Z,1.20
2022-12-08T04:55:45.470Z,0.60
2022-12-08T04:58:14.200Z,3.13
2022-12-08T05:00:41.423Z,1.00
2022-12-08T05:03:08.693Z,1.05
2022-12-08T05:05:35.976Z,0.95
2022-12-08T05:08:06.324Z,2.53
2022-12-08T05:10:33.632Z,1.00
2022-12-08T05:13:00.629Z,1.35
2022-12-08T05:15:28.403Z,1.55
2022-12-08T05:17:55.131Z,1.38
2022-12-08T05:20:21.864Z,2.25
2022-12-08T05:22:48.830Z,1.48
2022-12-08T05:25:15.709Z,1.33
2022-12-08T05:27:43.173Z,3.25
2022-12-08T05:30:12.434Z,1.30
2022-12-08T05:32:39.852Z,1.17
2022-12-08T05:35:08.334Z,2.05
2022-12-08T05:40:04.333Z,0.95
2022-12-08T05:44:57.409Z,0.70
2022-12-08T05:47:26.304Z,0.50
2022-12-08T05:49:52.898Z,1.58
2022-12-08T05:52:22.831Z,0.52
2022-12-08T05:54:50.065Z,0.50
2022-12-08T05:57:16.598Z,2.58
2022-12-08T05:59:43.452Z,1.95
2022-12-08T06:02:10.634Z,1.42
2022-12-08T06:04:37.242Z,1.40
2022-12-08T06:07:04.474Z,0.50
2022-12-08T06:09:31.498Z,1.25
2022-12-08T06:12:00.506Z,0.60
2022-12-08T06:14:27.124Z,3.25
2022-12-08T06:16:54.159Z,0.77
2022-12-08T06:19:23.203Z,5.82
2022-12-08T06:21:49.886Z,1.08
2022-12-08T06:24:18.969Z,1.73
2022-12-08T06:26:46.918Z,0.40
2022-12-08T06:29:14.036Z,4.65
2022-12-08T06:31:40.743Z,1.10
2022-12-08T06:34:07.292Z,2.42
2022-12-08T06:36:35.011Z,2.15
2022-12-08T06:39:01.864Z,1.15
2022-12-08T06:41:28.391Z,0.95
2022-12-08T06:43:58.677Z,1.52
2022-12-08T06:46:25.425Z,3.78
2022-12-08T06:48:52.071Z,5.50
2022-12-08T06:51:20.317Z,2.70
2022-12-08T06:53:48.347Z,0.85
2022-12-08T06:56:16.160Z,2.00
2022-12-08T06:58:46.088Z,1.08
2022-12-08T07:01:17.561Z,2.47
2022-12-08T07:03:48.077Z,2.00
2022-12-08T07:06:24.953Z,1.02
2022-12-08T07:08:55.247Z,0.60
2022-12-08T07:11:22.813Z,0.65
2022-12-08T07:13:52.584Z,0.52
2022-12-08T07:16:19.499Z,1.23
2022-12-08T07:18:46.302Z,1.00
2022-12-08T07:21:15.299Z,0.35
2022-12-08T07:23:42.977Z,3.05
2022-12-08T07:26:11.953Z,0.50
2022-12-08T07:28:40.640Z,0.63
2022-12-08T07:31:09.094Z,0.55
2022-12-08T07:36:05.910Z,0.90
2022-12-08T07:38:33.346Z,2.15
2022-12-08T07:40:59.986Z,2.50
2022-12-08T07:43:27.734Z,1.42
2022-12-08T07:45:54.455Z,1.38
2022-12-08T07:48:21.188Z,1.83
2022-12-08T07:50:48.525Z,1.52
2022-12-08T07:53:15.479Z,2.88
2022-12-08T07:55:43.484Z,2.38
2022-12-08T07:58:13.199Z,1.90
2022-12-08T08:00:40.230Z,3.88
2022-12-08T08:03:12.235Z,2.45
2022-12-08T08:05:38.928Z,1.88
2022-12-08T08:08:06.294Z,1.83
2022-12-08T08:10:34.460Z,4.38
2022-12-08T08:13:01.530Z,1.90
2022-12-08T08:15:29.009Z,1.52
2022-12-08T08:17:55.661Z,1.63
2022-12-08T08:20:23.059Z,5.40
2022-12-08T08:22:55.683Z,2.92
2022-12-08T08:25:25.305Z,1.50
2022-12-08T08:27:52.384Z,1.50
2022-12-08T08:30:21.011Z,1.55
2022-12-08T08:32:49.205Z,2.50
2022-12-08T08:35:16.261Z,1.48
2022-12-08T08:37:47.251Z,1.48
2022-12-08T08:40:16.094Z,2.42
2022-12-08T08:42:46.054Z,1.02
2022-12-08T08:45:15.551Z,2.15
2022-12-08T08:47:42.071Z,3.42
2022-12-08T08:50:09.282Z,1.42
2022-12-08T08:52:36.080Z,1.42
2022-12-08T08:55:05.930Z,1.30
2022-12-08T08:57:34.009Z,3.00
2022-12-08T09:00:00.598Z,1.00
2022-12-08T09:02:27.481Z,0.70
2022-12-08T09:04:54.345Z,2.10
2022-12-08T09:07:21.004Z,4.45
2022-12-08T09:09:47.737Z,1.02
2022-12-08T09:12:14.291Z,0.70
2022-12-08T09:14:41.279Z,0.60
2022-12-08T09:17:09.178Z,0.88
2022-12-08T09:19:36.097Z,0.90
2022-12-08T09:22:03.040Z,0.60
2022-12-08T09:24:29.954Z,0.50
2022-12-08T09:26:56.665Z,0.40
2022-12-08T09:29:31.105Z,0.45
2022-12-08T09:32:00.821Z,1.27
2022-12-08T09:34:28.942Z,4.30
2022-12-08T09:36:56.649Z,0.47
2022-12-08T09:39:23.620Z,0.43
2022-12-08T09:41:58.671Z,0.95
2022-12-08T09:44:34.151Z,0.50
2022-12-08T09:47:03.299Z,2.47
2022-12-08T09:49:39.065Z,0.63
2022-12-08T09:52:12.587Z,0.70
2022-12-08T09:54:41.081Z,3.10
2022-12-08T09:57:15.424Z,0.70
2022-12-08T09:59:48.047Z,3.25
2022-12-08T10:02:28.604Z,0.60
2022-12-08T10:04:56.904Z,0.90
2022-12-08T10:08:14.133Z,0.60
2022-12-08T10:10:53.719Z,0.68
2022-12-08T10:13:35.370Z,1.13
2022-12-08T10:16:39.897Z,0.82
2022-12-08T10:19:22.553Z,1.38
2022-12-08T10:21:50.373Z,0.82
2022-12-08T10:24:34.872Z,1.35
2022-12-08T10:27:02.699Z,1.20
2022-12-08T10:29:29.640Z,0.88
2022-12-08T10:31:58.679Z,0.82
2022-12-08T10:34:26.095Z,1.13
2022-12-08T10:37:00.789Z,5.22
2022-12-08T10:39:47.225Z,0.50
2022-12-08T10:42:13.725Z,1.08
2022-12-08T10:44:59.759Z,0.70
2022-12-08T10:47:28.891Z,0.98
2022-12-08T10:50:14.475Z,0.82
2022-12-08T10:52:41.690Z,1.45
2022-12-08T10:55:20.219Z,0.73
2022-12-08T10:57:49.110Z,1.13
2022-12-08T11:00:18.769Z,1.17
2022-12-08T11:03:22.997Z,1.42
2022-12-08T11:06:03.993Z,0.60
2022-12-08T11:08:34.102Z,0.95
2022-12-08T11:11:01.291Z,2.38
2022-12-08T11:13:30.209Z,1.30
2022-12-08T11:15:57.710Z,2.58
2022-12-08T11:18:40.323Z,1.10
2022-12-08T11:21:15.876Z,0.30
2022-12-08T11:23:46.942Z,0.40
2022-12-08T11:26:19.314Z,0.95
2022-12-08T11:28:46.503Z,0.75
2022-12-08T11:31:35.011Z,0.40
2022-12-08T11:34:03.058Z,0.50
2022-12-08T11:36:34.128Z,0.90
2022-12-08T11:39:04.711Z,1.23
2022-12-08T11:41:46.631Z,0.50
2022-12-08T11:44:35.212Z,0.55
2022-12-08T11:47:11.393Z,0.20
2022-12-08T11:49:40.320Z,0.60
2022-12-08T11:52:45.241Z,0.50
2022-12-08T11:55:49.994Z,0.50
2022-12-08T11:58:23.978Z,0.70
2022-12-08T12:00:52.935Z,0.90
2022-12-08T12:03:38.718Z,0.95
2022-12-08T12:06:46.330Z,0.77
2022-12-08T12:09:15.720Z,3.33
2022-12-08T12:12:19.329Z,0.80
2022-12-08T12:14:52.156Z,1.50
2022-12-08T12:17:40.567Z,0.70
2022-12-08T12:20:47.545Z,0.55
2022-12-08T12:23:21.679Z,4.97
2022-12-08T12:26:07.874Z,2.35
2022-12-08T12:28:50.047Z,0.35
2022-12-08T12:31:22.841Z,0.45
2022-12-08T12:33:51.052Z,0.90
2022-12-08T12:36:18.588Z,0.90
2022-12-08T12:39:04.494Z,0.43
2022-12-08T12:41:55.972Z,0.45
2022-12-08T12:44:36.734Z,1.05
2022-12-08T12:47:09.261Z,1.10
2022-12-08T12:49:50.719Z,1.27
2022-12-08T12:52:18.108Z,1.80
2022-12-08T12:55:13.221Z,0.57
2022-12-08T12:57:51.604Z,0.85
2022-12-08T13:00:19.861Z,0.20
2022-12-08T13:02:52.202Z,0.10
2022-12-08T13:05:28.965Z,0.68
2022-12-08T13:08:02.533Z,0.32
2022-12-08T13:10:39.406Z,0.30
2022-12-08T13:13:16.435Z,4.25
2022-12-08T13:16:18.545Z,0.70
2022-12-08T13:18:51.307Z,1.35
2022-12-08T13:21:23.090Z,1.60
2022-12-08T13:24:09.740Z,1.45
2022-12-08T13:26:47.496Z,1.00
2022-12-08T13:29:23.070Z,0.80
2022-12-08T13:31:58.616Z,0.85
2022-12-08T13:34:46.749Z,0.60
2022-12-08T13:39:40.247Z,1.15
2022-12-08T13:42:13.513Z,0.70
2022-12-08T13:45:33.414Z,0.60
2022-12-08T13:49:09.633Z,0.70
2022-12-08T13:57:21.469Z,1.00
2022-12-08T13:59:49.261Z,0.93
2022-12-08T14:02:25.382Z,0.73
2022-12-08T14:07:42.202Z,0.77
2022-12-08T14:10:15.148Z,3.25
2022-12-08T14:12:46.939Z,1.13
2022-12-08T14:15:16.010Z,2.20
2022-12-08T14:17:52.320Z,1.30
2022-12-08T14:20:42.557Z,1.58
2022-12-08T14:23:22.330Z,1.40
2022-12-08T14:25:48.977Z,1.55
2022-12-08T14:28:16.015Z,1.50
2022-12-08T14:30:43.372Z,2.28
2022-12-08T14:33:16.937Z,2.20
2022-12-08T14:35:53.763Z,2.35
2022-12-08T14:38:23.729Z,3.30
2022-12-08T14:41:03.805Z,1.50
2022-12-08T14:43:33.533Z,2.70
2022-12-08T14:46:03.370Z,1.40
2022-12-08T14:48:39.847Z,1.63
2022-12-08T14:51:21.612Z,6.65
2022-12-08T14:54:01.771Z,2.92
2022-12-08T14:56:50.442Z,2.20
2022-12-08T14:59:25.786Z,2.53
2022-12-08T15:02:09.308Z,2.05
2022-12-08T15:04:39.300Z,6.82
2022-12-08T15:07:22.294Z,2.15
2022-12-08T15:10:06.083Z,2.03
2022-12-08T15:12:33.462Z,7.35
2022-12-08T15:15:15.450Z,2.70
2022-12-08T15:17:50.251Z,1.90
2022-12-08T15:20:39.310Z,4.88
2022-12-08T15:23:07.607Z,2.30
2022-12-08T15:25:35.300Z,4.45
2022-12-08T15:28:05.327Z,2.60
2022-12-08T15:30:32.366Z,2.05
2022-12-08T15:32:59.612Z,4.10
2022-12-08T15:35:26.256Z,2.05
2022-12-08T15:37:54.049Z,2.20
2022-12-08T15:40:23.301Z,3.58
2022-12-08T15:42:53.677Z,2.63
2022-12-08T15:45:29.546Z,3.75
2022-12-08T15:47:57.001Z,7.03
2022-12-08T15:50:26.842Z,3.08
2022-12-08T15:52:57.810Z,2.60
2022-12-08T15:55:25.393Z,3.85
2022-12-08T16:00:57.960Z,3.60
2022-12-08T16:09:17.634Z,3.03
2022-12-08T16:12:08.163Z,3.30
2022-12-08T16:17:25.835Z,3.80
2022-12-08T16:19:52.447Z,3.28
2022-12-08T16:25:21.622Z,3.80
2022-12-08T16:28:12.632Z,5.87
2022-12-08T16:30:40.857Z,4.03
2022-12-08T16:33:07.467Z,3.45
2022-12-08T16:35:34.458Z,3.75
2022-12-08T16:38:02.610Z,4.03
2022-12-08T16:40:31.018Z,3.42
2022-12-08T16:45:30.374Z,4.20
2022-12-08T16:48:01.429Z,3.83
2022-12-08T16:50:32.856Z,3.80
2022-12-08T16:53:03.349Z,4.82
2022-12-08T16:55:30.328Z,3.55
2022-12-08T16:57:57.090Z,3.40
2022-12-08T17:00:26.043Z,4.10
2022-12-08T17:02:53.017Z,5.15
2022-12-08T17:05:22.561Z,3.92
2022-12-08T17:07:51.441Z,3.00
2022-12-08T17:10:27.053Z,5.47
2022-12-08T17:12:55.163Z,4.28
2022-12-08T17:15:24.061Z,3.25
2022-12-08T17:17:50.712Z,3.63
2022-12-08T17:20:26.195Z,3.22
2022-12-08T17:22:57.917Z,4.97
2022-12-08T17:25:26.389Z,3.50
2022-12-08T17:30:20.196Z,7.38
2022-12-08T17:32:50.071Z,5.32
2022-12-08T17:35:16.605Z,2.90
2022-12-08T17:37:43.689Z,3.00
2022-12-08T17:40:13.897Z,3.25
2022-12-08T17:42:40.792Z,2.95
2022-12-08T17:45:13.057Z,3.20
2022-12-08T17:47:39.545Z,4.15
2022-12-08T17:50:09.712Z,2.97
2022-12-08T17:52:36.672Z,3.92
2022-12-08T17:55:03.816Z,4.00
2022-12-08T17:57:31.040Z,3.33
2022-12-08T17:59:58.060Z,3.75
2022-12-08T18:02:25.497Z,3.47
2022-12-08T18:04:54.697Z,4.25
2022-12-08T18:07:21.919Z,3.80
2022-12-08T18:09:48.885Z,3.97
2022-12-08T18:12:19.257Z,4.13
2022-12-08T18:14:52.520Z,4.50
2022-12-08T18:17:19.391Z,5.22
2022-12-08T18:19:46.177Z,5.38
2022-12-08T18:22:13.192Z,4.40
2022-12-08T18:24:39.893Z,4.10
2022-12-08T18:27:06.773Z,4.65
2022-12-08T18:29:33.624Z,6.75
2022-12-08T18:32:05.693Z,5.28
2022-12-08T18:34:32.183Z,5.25
2022-12-08T18:37:01.688Z,6.40
2022-12-08T18:39:31.680Z,5.50
2022-12-08T18:41:59.613Z,6.28
2022-12-08T18:44:26.617Z,6.53
2022-12-08T18:46:53.223Z,6.03
2022-12-08T18:49:20.364Z,6.85
2022-12-08T18:51:47.363Z,7.03
2022-12-08T18:54:14.432Z,6.93
2022-12-08T18:56:41.213Z,8.35
2022-12-08T18:59:11.250Z,7.53
2022-12-08T19:01:40.588Z,8.27
2022-12-08T19:04:28.049Z,5.78
2022-12-08T19:09:22.818Z,6.57
2022-12-08T19:11:49.441Z,10.00
2022-12-08T19:14:18.367Z,6.78
2022-12-08T19:16:46.706Z,7.05
2022-12-08T19:19:13.392Z,11.50
2022-12-08T19:21:46.133Z,7.97
2022-12-08T19:24:13.688Z,7.55
2022-12-08T19:26:40.723Z,8.65
2022-12-08T19:29:07.329Z,6.68
2022-12-08T19:31:36.468Z,9.35
2022-12-08T19:34:03.362Z,9.63
2022-12-08T19:36:35.495Z,8.32
2022-12-08T19:39:22.520Z,9.05
2022-12-08T19:42:08.279Z,7.55
2022-12-08T19:44:53.063Z,9.20
2022-12-08T19:47:25.625Z,9.48
2022-12-08T19:49:55.031Z,9.60
2022-12-08T19:52:22.008Z,9.35
2022-12-08T19:54:48.982Z,10.82
2022-12-08T19:57:16.385Z,10.57
2022-12-08T19:59:43.721Z,12.75
2022-12-08T20:02:11.346Z,13.02
2022-12-08T20:04:38.215Z,11.20
2022-12-08T20:07:12.720Z,11.30
2022-12-08T20:09:39.656Z,13.05
2022-12-08T20:12:08.263Z,11.55
2022-12-08T20:14:35.259Z,10.25
2022-12-08T20:17:04.127Z,14.77
2022-12-08T20:19:31.341Z,16.02
2022-12-08T20:21:57.997Z,13.20
2022-12-08T20:24:24.862Z,14.48
2022-12-08T20:26:54.147Z,12.80
2022-12-08T20:29:21.024Z,14.20
2022-12-08T20:31:48.038Z,13.52
2022-12-08T20:34:19.050Z,16.35
2022-12-08T20:36:48.622Z,15.48
2022-12-08T20:39:17.397Z,13.82
2022-12-08T20:41:45.515Z,11.35
2022-12-08T20:44:12.941Z,14.80
2022-12-08T20:46:41.779Z,14.02
2022-12-08T20:49:15.068Z,14.10
2022-12-08T20:51:42.171Z,18.92
2022-12-08T20:54:10.287Z,11.98
2022-12-08T20:56:43.361Z,14.45
2022-12-08T20:59:17.448Z,13.40
2022-12-08T21:01:44.054Z,14.90
2022-12-08T21:04:12.800Z,14.45
2022-12-08T21:06:39.474Z,12.13
2022-12-08T21:09:06.351Z,11.85
2022-12-08T21:11:33.491Z,12.68
2022-12-08T21:14:02.400Z,14.02
2022-12-08T21:16:29.327Z,11.98
2022-12-08T21:18:56.271Z,16.48
2022-12-08T21:21:26.230Z,16.77
2022-12-08T21:23:54.187Z,14.15
2022-12-08T21:26:26.515Z,14.10
2022-12-08T21:28:54.753Z,13.32
2022-12-08T21:33:49.617Z,13.93
2022-12-08T21:36:20.028Z,17.13
2022-12-08T21:38:47.625Z,14.23
2022-12-08T21:41:42.059Z,16.52
2022-12-08T21:44:10.944Z,16.98
2022-12-08T21:46:37.638Z,14.60
2022-12-08T21:49:05.105Z,16.80
2022-12-08T21:51:33.864Z,15.23
2022-12-08T21:54:01.023Z,18.38
2022-12-08T21:56:27.864Z,15.52
2022-12-08T21:58:54.676Z,15.05
2022-12-08T22:01:21.493Z,13.82
2022-12-08T22:03:48.844Z,16.70
2022-12-08T22:06:18.011Z,15.30
2022-12-08T22:08:44.856Z,15.60
2022-12-08T22:11:13.218Z,14.02
2022-12-08T22:13:41.756Z,16.52
2022-12-08T22:16:11.572Z,17.20
2022-12-08T22:18:40.074Z,17.30
2022-12-08T22:21:15.059Z,12.82
2022-12-08T22:23:42.105Z,15.63
2022-12-08T22:26:14.501Z,19.88
2022-12-08T22:28:44.847Z,40.08
2022-12-08T22:31:17.270Z,47.35
2022-12-08T22:33:44.451Z,32.17
2022-12-08T22:36:17.513Z,57.83
2022-12-08T22:38:44.134Z,39.72
2022-12-08T22:41:10.685Z,53.58
2022-12-08T22:43:39.572Z,30.90
2022-12-08T22:46:26.398Z,22.20
2022-12-08T22:48:55.259Z,16.08
2022-12-08T22:51:21.977Z,16.80
2022-12-08T22:53:49.145Z,15.20
2022-12-08T22:56:17.629Z,17.55
2022-12-08T22:58:45.555Z,16.88
2022-12-08T23:01:41.612Z,18.88
2022-12-08T23:04:17.185Z,18.27
2022-12-08T23:06:44.411Z,18.17
2022-12-08T23:09:12.041Z,20.30
2022-12-08T23:11:39.179Z,19.52
2022-12-08T23:14:06.063Z,20.95
2022-12-08T23:16:33.704Z,20.42
2022-12-08T23:19:00.440Z,18.17
2022-12-08T23:21:27.565Z,16.48
2022-12-08T23:23:54.750Z,19.10
2022-12-08T23:26:27.410Z,15.65
2022-12-08T23:28:55.040Z,16.90
2022-12-08T23:31:22.503Z,18.50
2022-12-08T23:33:49.537Z,14.55
2022-12-08T23:36:20.432Z,17.15
2022-12-08T23:38:47.620Z,11.75
2022-12-08T23:41:16.577Z,15.77
2022-12-08T23:43:46.232Z,21.65
2022-12-08T23:46:14.381Z,17.88
2022-12-08T23:48:42.776Z,20.65
2022-12-08T23:51:09.787Z,21.58
2022-12-08T23:53:36.839Z,18.90
2022-12-08T23:56:09.065Z,18.95
2022-12-08T23:58:40.044Z,18.25
